createdAt,value
2022-08-02T00:00:41.990Z,16.82
2022-08-02T00:01:41.383Z,16.81
2022-08-02T00:02:41.593Z,16.81
2022-08-02T00:03:41.910Z,16.81
2022-08-02T00:04:43.092Z,16.82
2022-08-02T00:05:42.494Z,16.79
2022-08-02T00:06:43.815Z,16.79
2022-08-02T00:07:43.144Z,16.75
2022-08-02T00:08:43.459Z,16.75
2022-08-02T00:09:43.885Z,16.73
2022-08-02T00:10:43.978Z,16.71
2022-08-02T00:11:44.296Z,16.70
2022-08-02T00:12:44.625Z,16.67
2022-08-02T00:13:44.967Z,16.67
2022-08-02T00:14:45.288Z,16.67
2022-08-02T00:15:45.660Z,16.66
2022-08-02T00:16:46.025Z,16.64
2022-08-02T00:17:46.422Z,16.67
2022-08-02T00:18:47.421Z,16.67
2022-08-02T00:19:46.819Z,16.66
2022-08-02T00:20:47.229Z,16.64
2022-08-02T00:21:47.452Z,16.66
2022-08-02T00:22:47.778Z,16.66
2022-08-02T00:24:28.152Z,16.66
2022-08-02T00:24:49.450Z,16.61
2022-08-02T00:25:55.203Z,16.60
2022-08-02T00:26:50.052Z,16.57
2022-08-02T00:27:49.344Z,16.56
2022-08-02T00:28:49.703Z,16.53
2022-08-02T00:29:53.006Z,16.50
2022-08-02T00:30:50.252Z,16.50
2022-08-02T00:31:50.552Z,16.50
2022-08-02T00:32:50.864Z,16.49
2022-08-02T00:34:26.991Z,16.48
2022-08-02T00:34:52.556Z,16.45
2022-08-02T00:35:51.852Z,16.45
2022-08-02T00:36:52.050Z,16.38
2022-08-02T00:37:52.395Z,16.33
2022-08-02T00:38:52.714Z,16.30
2022-08-02T00:39:53.056Z,16.27
2022-08-02T00:40:58.001Z,16.25
2022-08-02T00:41:53.707Z,16.25
2022-08-02T00:42:54.048Z,16.24
2022-08-02T00:43:54.389Z,16.24
2022-08-02T00:44:55.588Z,16.23
2022-08-02T00:46:02.297Z,16.24
2022-08-02T00:46:56.311Z,16.21
2022-08-02T00:47:55.577Z,16.23
2022-08-02T00:48:55.942Z,16.23
2022-08-02T00:49:56.220Z,16.15
2022-08-02T00:50:56.428Z,16.17
2022-08-02T00:51:56.768Z,16.15
2022-08-02T00:52:57.090Z,16.15
2022-08-02T00:53:57.460Z,16.14
2022-08-02T00:54:57.672Z,16.14
2022-08-02T00:55:58.402Z,16.15
2022-08-02T00:56:58.242Z,16.17
2022-08-02T00:57:58.742Z,16.15
2022-08-02T00:58:58.801Z,16.15
2022-08-02T00:59:59.147Z,16.12
2022-08-02T01:00:59.536Z,16.11
2022-08-02T01:01:59.797Z,16.09
2022-08-02T01:03:00.004Z,16.08
2022-08-02T01:04:00.343Z,16.08
2022-08-02T01:05:00.736Z,16.05
2022-08-02T01:06:17.435Z,16.04
2022-08-02T01:07:02.273Z,16.04
2022-08-02T01:08:01.557Z,16.01
2022-08-02T01:09:01.895Z,16.02
2022-08-02T01:10:02.142Z,16.01
2022-08-02T01:11:02.527Z,16.02
2022-08-02T01:12:02.978Z,16.00
2022-08-02T01:13:03.067Z,16.01
2022-08-02T01:14:03.278Z,16.00
2022-08-02T01:15:03.644Z,16.00
2022-08-02T01:16:03.852Z,16.00
2022-08-02T01:17:04.184Z,16.00
2022-08-02T01:18:04.521Z,16.00
2022-08-02T01:19:04.868Z,16.01
2022-08-02T01:20:06.304Z,16.01
2022-08-02T01:21:05.529Z,16.01
2022-08-02T01:22:05.748Z,16.00
2022-08-02T01:23:06.087Z,15.96
2022-08-02T01:24:06.416Z,15.93
2022-08-02T01:25:06.845Z,15.92
2022-08-02T01:26:07.090Z,15.92
2022-08-02T01:27:07.293Z,15.92
2022-08-02T01:28:07.648Z,15.89
2022-08-02T01:29:07.871Z,15.87
2022-08-02T01:30:08.209Z,15.90
2022-08-02T01:31:08.561Z,15.93
2022-08-02T01:32:09.144Z,15.92
2022-08-02T01:33:09.146Z,15.94
2022-08-02T01:34:09.345Z,15.93
2022-08-02T01:35:09.665Z,15.92
2022-08-02T01:36:10.036Z,15.89
2022-08-02T01:37:10.238Z,15.89
2022-08-02T01:38:10.591Z,15.84
2022-08-02T01:39:10.916Z,15.84
2022-08-02T01:40:11.238Z,15.83
2022-08-02T01:41:11.744Z,15.82
2022-08-02T01:42:12.305Z,15.75
2022-08-02T01:43:12.280Z,15.68
2022-08-02T01:44:12.488Z,15.60
2022-08-02T01:45:12.715Z,15.56
2022-08-02T01:46:13.071Z,15.51
2022-08-02T01:47:13.332Z,15.47
2022-08-02T01:48:13.543Z,15.43
2022-08-02T01:49:13.923Z,15.36
2022-08-02T01:50:15.150Z,15.34
2022-08-02T01:51:14.464Z,15.35
2022-08-02T01:52:14.698Z,15.38
2022-08-02T01:53:14.893Z,15.36
2022-08-02T01:54:15.232Z,15.35
2022-08-02T01:55:18.798Z,15.36
2022-08-02T01:56:15.825Z,15.39
2022-08-02T01:57:16.161Z,15.36
2022-08-02T01:58:16.503Z,15.38
2022-08-02T01:59:16.855Z,15.35
2022-08-02T02:00:17.236Z,15.36
2022-08-02T02:01:18.499Z,15.35
2022-08-02T02:02:17.812Z,15.36
2022-08-02T02:03:18.037Z,15.36
2022-08-02T02:04:18.362Z,15.38
2022-08-02T02:05:18.694Z,15.38
2022-08-02T02:06:19.047Z,15.38
2022-08-02T02:07:19.359Z,15.36
2022-08-02T02:08:27.368Z,15.36
2022-08-02T02:09:21.008Z,15.36
2022-08-02T02:10:20.318Z,15.36
2022-08-02T02:12:09.429Z,15.36
2022-08-02T02:12:22.070Z,15.39
2022-08-02T02:13:21.050Z,15.38
2022-08-02T02:14:22.359Z,15.38
2022-08-02T02:15:21.733Z,15.38
2022-08-02T02:16:21.949Z,15.39
2022-08-02T02:18:10.746Z,15.36
2022-08-02T02:18:23.571Z,15.35
2022-08-02T02:19:22.912Z,15.34
2022-08-02T02:20:23.084Z,15.34
2022-08-02T02:21:23.406Z,15.35
2022-08-02T02:22:23.732Z,15.36
2022-08-02T02:23:25.803Z,15.34
2022-08-02T02:24:24.324Z,15.34
2022-08-02T02:25:29.344Z,15.29
2022-08-02T02:26:31.057Z,15.27
2022-08-02T02:27:26.214Z,15.28
2022-08-02T02:28:25.496Z,15.23
2022-08-02T02:29:25.695Z,15.23
2022-08-02T02:30:26.058Z,15.23
2022-08-02T02:31:26.282Z,15.21
2022-08-02T02:32:26.622Z,15.23
2022-08-02T02:33:29.515Z,15.23
2022-08-02T02:34:27.177Z,15.21
2022-08-02T02:35:27.507Z,15.20
2022-08-02T02:36:27.847Z,15.17
2022-08-02T02:37:28.171Z,15.16
2022-08-02T02:38:28.507Z,15.16
2022-08-02T02:39:28.829Z,15.14
2022-08-02T02:40:29.148Z,15.11
2022-08-02T02:41:29.511Z,15.11
2022-08-02T02:42:29.840Z,15.09
2022-08-02T02:43:30.010Z,15.07
2022-08-02T02:44:30.361Z,15.07
2022-08-02T02:45:31.536Z,15.07
2022-08-02T02:46:30.914Z,15.06
2022-08-02T02:47:41.157Z,15.03
2022-08-02T02:49:47.894Z,15.03
2022-08-02T02:50:48.101Z,14.98
2022-08-02T02:51:48.433Z,14.96
2022-08-02T02:52:48.761Z,14.96
2022-08-02T02:54:30.113Z,14.95
2022-08-02T02:54:50.443Z,14.95
2022-08-02T02:56:02.557Z,14.95
2022-08-02T02:56:51.002Z,14.98
2022-08-02T02:57:50.304Z,14.98
2022-08-02T02:58:50.606Z,14.94
2022-08-02T02:59:50.844Z,14.95
2022-08-02T03:00:51.147Z,14.86
2022-08-02T03:01:56.981Z,14.83
2022-08-02T03:02:52.655Z,14.80
2022-08-02T03:03:51.966Z,14.80
2022-08-02T03:04:56.978Z,14.80
2022-08-02T03:05:53.625Z,14.81
2022-08-02T03:06:52.906Z,14.80
2022-08-02T03:07:53.281Z,14.80
2022-08-02T03:08:53.487Z,14.80
2022-08-02T03:09:54.915Z,14.77
2022-08-02T03:10:54.028Z,14.78
2022-08-02T03:11:54.380Z,14.77
2022-08-02T03:12:54.610Z,14.78
2022-08-02T03:13:54.869Z,14.77
2022-08-02T03:14:55.079Z,14.77
2022-08-02T03:15:55.339Z,14.80
2022-08-02T03:16:55.619Z,14.73
2022-08-02T03:17:55.961Z,14.70
2022-08-02T03:18:56.248Z,14.65
2022-08-02T03:19:56.545Z,14.62
2022-08-02T03:20:56.828Z,14.65
2022-08-02T03:21:57.504Z,14.68
2022-08-02T03:22:58.350Z,14.64
2022-08-02T03:23:57.713Z,14.62
2022-08-02T03:24:57.923Z,14.60
2022-08-02T03:25:58.242Z,14.60
2022-08-02T03:26:58.651Z,14.62
2022-08-02T03:27:58.868Z,14.61
2022-08-02T03:28:59.182Z,14.62
2022-08-02T03:29:59.474Z,14.64
2022-08-02T03:30:59.752Z,14.65
2022-08-02T03:32:00.015Z,14.68
2022-08-02T03:33:00.445Z,14.70
2022-08-02T03:34:00.627Z,14.75
2022-08-02T03:35:00.969Z,14.77
2022-08-02T03:36:01.174Z,14.75
2022-08-02T03:37:01.417Z,14.77
2022-08-02T03:38:01.647Z,14.75
2022-08-02T03:39:01.966Z,14.78
2022-08-02T03:40:02.339Z,14.80
2022-08-02T03:41:02.583Z,14.83
2022-08-02T03:42:02.902Z,14.84
2022-08-02T03:43:03.211Z,14.80
2022-08-02T03:44:03.562Z,14.77
2022-08-02T03:45:08.094Z,14.80
2022-08-02T03:46:05.141Z,14.80
2022-08-02T03:47:04.433Z,14.78
2022-08-02T03:48:30.431Z,14.80
2022-08-02T03:49:06.015Z,14.78
2022-08-02T03:50:05.266Z,14.81
2022-08-02T03:51:05.602Z,14.86
2022-08-02T03:52:05.970Z,14.89
2022-08-02T03:53:06.204Z,14.94
2022-08-02T03:54:07.528Z,14.95
2022-08-02T03:55:06.802Z,14.95
2022-08-02T03:56:07.153Z,14.96
2022-08-02T03:57:07.396Z,14.99
2022-08-02T03:58:07.636Z,15.01
2022-08-02T03:59:07.873Z,15.02
2022-08-02T04:00:08.105Z,15.03
2022-08-02T04:01:08.432Z,15.07
2022-08-02T04:02:08.886Z,15.10
2022-08-02T04:03:08.956Z,15.11
2022-08-02T04:04:09.215Z,15.11
2022-08-02T04:05:09.446Z,15.11
2022-08-02T04:06:09.707Z,15.11
2022-08-02T04:07:09.959Z,15.09
2022-08-02T04:08:35.209Z,15.09
2022-08-02T04:09:11.534Z,15.07
2022-08-02T04:10:10.822Z,15.07
2022-08-02T04:11:11.064Z,15.03
2022-08-02T04:12:11.506Z,15.01
2022-08-02T04:13:11.519Z,14.99
2022-08-02T04:14:11.831Z,15.01
2022-08-02T04:15:12.062Z,15.02
2022-08-02T04:16:12.300Z,15.02
2022-08-02T04:17:12.600Z,15.07
2022-08-02T04:18:12.852Z,15.07
2022-08-02T04:19:15.088Z,15.11
2022-08-02T04:20:13.352Z,15.14
2022-08-02T04:21:13.583Z,15.16
2022-08-02T04:22:14.191Z,15.16
2022-08-02T04:23:14.427Z,15.20
2022-08-02T04:24:14.362Z,15.21
2022-08-02T04:25:17.247Z,15.27
2022-08-02T04:26:14.842Z,15.28
2022-08-02T04:27:50.868Z,15.29
2022-08-02T04:28:18.137Z,15.31
2022-08-02T04:29:15.785Z,15.32
2022-08-02T04:30:16.046Z,15.35
2022-08-02T04:31:16.303Z,15.35
2022-08-02T04:32:16.557Z,15.39
2022-08-02T04:33:16.814Z,15.41
2022-08-02T04:34:17.037Z,15.39
2022-08-02T04:35:19.541Z,15.41
2022-08-02T04:36:31.204Z,15.44
2022-08-02T04:37:18.837Z,15.47
2022-08-02T04:38:18.129Z,15.50
2022-08-02T04:39:18.387Z,15.50
2022-08-02T04:40:18.628Z,15.49
2022-08-02T04:41:18.878Z,15.47
2022-08-02T04:42:19.129Z,15.46
2022-08-02T04:43:19.360Z,15.49
2022-08-02T04:44:19.601Z,15.50
2022-08-02T04:45:19.884Z,15.51
2022-08-02T04:46:20.121Z,15.54
2022-08-02T04:47:54.095Z,15.57
2022-08-02T04:48:21.753Z,15.62
2022-08-02T04:49:20.981Z,15.68
2022-08-02T04:50:21.233Z,15.69
2022-08-02T04:51:21.463Z,15.72
2022-08-02T04:52:22.842Z,15.74
2022-08-02T04:53:22.125Z,15.76
2022-08-02T04:54:22.398Z,15.80
2022-08-02T04:55:22.636Z,15.83
2022-08-02T04:56:23.365Z,15.87
2022-08-02T04:57:23.166Z,15.92
2022-08-02T04:58:40.061Z,15.96
2022-08-02T04:59:24.744Z,16.01
2022-08-02T05:00:24.067Z,16.02
2022-08-02T05:01:24.287Z,16.05
2022-08-02T05:02:24.545Z,16.09
2022-08-02T05:03:24.787Z,16.14
2022-08-02T05:04:25.027Z,16.21
2022-08-02T05:05:25.258Z,16.31
2022-08-02T05:06:25.499Z,16.57
2022-08-02T05:07:25.776Z,16.97
2022-08-02T05:08:26.030Z,17.48
2022-08-02T05:09:26.287Z,17.97
2022-08-02T05:10:26.550Z,18.42
2022-08-02T05:11:30.046Z,18.81
2022-08-02T05:12:28.161Z,19.18
2022-08-02T05:13:27.461Z,19.50
2022-08-02T05:14:27.722Z,19.86
2022-08-02T05:15:31.618Z,20.03
2022-08-02T05:16:31.594Z,20.01
2022-08-02T05:17:28.654Z,20.02
2022-08-02T05:18:28.902Z,19.76
2022-08-02T05:19:29.134Z,19.44
2022-08-02T05:20:29.384Z,19.21
2022-08-02T05:21:29.619Z,19.00
2022-08-02T05:22:29.872Z,18.87
2022-08-02T05:23:30.113Z,18.70
2022-08-02T05:24:30.369Z,18.88
2022-08-02T05:25:30.627Z,19.37
2022-08-02T05:26:30.884Z,19.80
2022-08-02T05:27:31.175Z,20.17
2022-08-02T05:28:31.427Z,20.43
2022-08-02T05:29:31.709Z,20.73
2022-08-02T05:30:31.967Z,20.97
2022-08-02T05:31:32.251Z,21.24
2022-08-02T05:32:32.480Z,21.44
2022-08-02T05:33:32.742Z,21.59
2022-08-02T05:34:33.051Z,21.74
2022-08-02T05:35:33.305Z,21.90
2022-08-02T05:36:33.602Z,22.00
2022-08-02T05:37:35.263Z,22.06
2022-08-02T05:38:37.332Z,22.12
2022-08-02T05:39:34.381Z,22.15
2022-08-02T05:40:34.647Z,21.82
2022-08-02T05:41:34.897Z,21.32
2022-08-02T05:42:35.165Z,20.88
2022-08-02T05:43:35.471Z,20.50
2022-08-02T05:44:35.763Z,20.26
2022-08-02T05:45:36.022Z,20.05
2022-08-02T05:46:36.367Z,19.96
2022-08-02T05:47:36.546Z,19.95
2022-08-02T05:48:36.857Z,20.21
2022-08-02T05:49:37.246Z,20.52
2022-08-02T05:50:37.380Z,20.84
2022-08-02T05:51:37.678Z,21.01
2022-08-02T05:52:37.973Z,21.14
2022-08-02T05:53:38.279Z,21.34
2022-08-02T05:54:39.620Z,21.49
2022-08-02T05:55:38.950Z,21.62
2022-08-02T05:56:39.102Z,21.71
2022-08-02T05:57:43.448Z,21.84
2022-08-02T05:58:39.700Z,21.94
2022-08-02T05:59:39.962Z,21.94
2022-08-02T06:00:40.284Z,22.02
2022-08-02T06:01:40.725Z,22.15
2022-08-02T06:02:40.927Z,22.27
2022-08-02T06:03:41.229Z,22.31
2022-08-02T06:04:41.533Z,22.24
2022-08-02T06:05:41.844Z,22.21
2022-08-02T06:06:42.126Z,22.22
2022-08-02T06:07:42.416Z,22.22
2022-08-02T06:08:47.411Z,22.20
2022-08-02T06:09:44.098Z,22.31
2022-08-02T06:10:43.397Z,22.47
2022-08-02T06:12:02.788Z,22.65
2022-08-02T06:12:44.886Z,22.80
2022-08-02T06:13:44.189Z,22.98
2022-08-02T06:14:44.452Z,23.19
2022-08-02T06:15:52.660Z,23.38
2022-08-02T06:16:45.978Z,23.55
2022-08-02T06:17:45.603Z,23.73
2022-08-02T06:18:45.346Z,23.93
2022-08-02T06:19:51.775Z,24.10
2022-08-02T06:20:46.951Z,24.28
2022-08-02T06:22:32.032Z,24.42
2022-08-02T06:22:47.676Z,24.45
2022-08-02T06:23:57.672Z,24.45
2022-08-02T06:24:48.017Z,24.45
2022-08-02T06:25:50.681Z,24.55
2022-08-02T06:26:47.506Z,24.62
2022-08-02T06:27:47.870Z,24.77
2022-08-02T06:28:48.138Z,24.87
2022-08-02T06:29:48.411Z,24.96
2022-08-02T06:30:48.720Z,25.05
2022-08-02T06:31:49.033Z,25.10
2022-08-02T06:32:49.789Z,25.10
2022-08-02T06:33:49.609Z,24.95
2022-08-02T06:34:49.936Z,24.90
2022-08-02T06:35:50.252Z,24.88
2022-08-02T06:36:50.553Z,24.95
2022-08-02T06:37:53.542Z,24.91
2022-08-02T06:38:51.263Z,24.84
2022-08-02T06:39:51.532Z,24.73
2022-08-02T06:40:51.673Z,24.69
2022-08-02T06:41:51.949Z,24.58
2022-08-02T06:42:52.277Z,24.40
2022-08-02T06:43:52.576Z,24.31
2022-08-02T06:44:57.014Z,24.30
2022-08-02T06:45:54.127Z,24.25
2022-08-02T06:47:09.881Z,24.21
2022-08-02T06:47:54.875Z,24.15
2022-08-02T06:48:54.098Z,24.10
2022-08-02T06:49:55.048Z,24.06
2022-08-02T06:50:54.628Z,23.94
2022-08-02T06:51:54.952Z,23.88
2022-08-02T06:52:55.303Z,23.84
2022-08-02T06:53:55.594Z,23.78
2022-08-02T06:54:55.871Z,23.70
2022-08-02T06:55:56.134Z,23.63
2022-08-02T06:56:56.393Z,23.51
2022-08-02T06:57:56.715Z,23.36
2022-08-02T06:58:56.994Z,23.17
2022-08-02T06:59:57.325Z,22.98
2022-08-02T07:00:57.578Z,22.83
2022-08-02T07:01:58.083Z,22.68
2022-08-02T07:02:58.095Z,22.55
2022-08-02T07:03:58.356Z,22.45
2022-08-02T07:04:58.634Z,22.37
2022-08-02T07:05:58.863Z,22.28
2022-08-02T07:06:59.142Z,22.21
2022-08-02T07:07:59.388Z,22.18
2022-08-02T07:09:19.373Z,22.12
2022-08-02T07:10:01.902Z,22.03
2022-08-02T07:11:00.243Z,21.94
2022-08-02T07:12:00.488Z,21.88
2022-08-02T07:13:00.732Z,21.80
2022-08-02T07:14:00.987Z,21.79
2022-08-02T07:15:01.239Z,21.75
2022-08-02T07:16:01.462Z,21.71
2022-08-02T07:17:01.704Z,21.69
2022-08-02T07:18:01.955Z,21.67
2022-08-02T07:19:02.197Z,21.62
2022-08-02T07:20:02.425Z,21.59
2022-08-02T07:21:02.678Z,21.58
2022-08-02T07:22:02.997Z,21.54
2022-08-02T07:23:03.239Z,21.53
2022-08-02T07:24:03.499Z,21.50
2022-08-02T07:25:03.739Z,21.47
2022-08-02T07:26:05.790Z,21.43
2022-08-02T07:27:12.595Z,21.42
2022-08-02T07:28:05.591Z,21.40
2022-08-02T07:29:04.781Z,21.42
2022-08-02T07:30:05.029Z,21.42
2022-08-02T07:31:05.283Z,21.42
2022-08-02T07:32:05.561Z,21.42
2022-08-02T07:33:05.834Z,21.40
2022-08-02T07:34:06.086Z,21.40
2022-08-02T07:35:06.717Z,21.44
2022-08-02T07:36:08.164Z,21.49
2022-08-02T07:37:06.841Z,21.52
2022-08-02T07:38:07.094Z,21.56
2022-08-02T07:39:07.369Z,21.58
2022-08-02T07:40:12.478Z,21.61
2022-08-02T07:41:08.916Z,21.64
2022-08-02T07:42:08.281Z,21.65
2022-08-02T07:43:08.466Z,21.64
2022-08-02T07:44:08.706Z,21.61
2022-08-02T07:45:08.945Z,21.61
2022-08-02T07:46:09.196Z,21.56
2022-08-02T07:47:10.387Z,21.56
2022-08-02T07:48:09.719Z,21.54
2022-08-02T07:49:10.009Z,21.53
2022-08-02T07:50:10.268Z,21.50
2022-08-02T07:51:13.015Z,21.50
2022-08-02T07:52:12.174Z,21.52
2022-08-02T07:53:11.191Z,21.52
2022-08-02T07:54:11.443Z,21.53
2022-08-02T07:55:12.760Z,21.53
2022-08-02T07:56:12.059Z,21.54
2022-08-02T07:57:12.303Z,21.58
2022-08-02T07:58:13.621Z,21.54
2022-08-02T07:59:12.843Z,21.54
2022-08-02T08:00:13.116Z,21.54
2022-08-02T08:01:13.416Z,21.52
2022-08-02T08:02:13.960Z,21.53
2022-08-02T08:03:14.021Z,21.53
2022-08-02T08:04:14.271Z,21.54
2022-08-02T08:05:14.515Z,21.58
2022-08-02T08:06:14.768Z,21.58
2022-08-02T08:07:15.008Z,21.61
2022-08-02T08:08:17.686Z,21.62
2022-08-02T08:09:15.530Z,21.62
2022-08-02T08:10:15.840Z,21.61
2022-08-02T08:11:16.099Z,21.62
2022-08-02T08:12:16.629Z,21.61
2022-08-02T08:13:16.649Z,21.59
2022-08-02T08:14:17.166Z,21.56
2022-08-02T08:15:17.130Z,21.54
2022-08-02T08:16:17.370Z,21.50
2022-08-02T08:17:17.612Z,21.50
2022-08-02T08:18:17.859Z,21.44
2022-08-02T08:19:18.095Z,21.46
2022-08-02T08:20:18.340Z,21.44
2022-08-02T08:21:18.565Z,21.46
2022-08-02T08:22:18.837Z,21.49
2022-08-02T08:23:19.087Z,21.50
2022-08-02T08:24:19.324Z,21.53
2022-08-02T08:25:19.564Z,21.54
2022-08-02T08:26:19.811Z,21.53
2022-08-02T08:27:20.038Z,21.52
2022-08-02T08:28:20.305Z,21.50
2022-08-02T08:29:20.545Z,21.49
2022-08-02T08:30:20.841Z,21.47
2022-08-02T08:31:21.010Z,21.50
2022-08-02T08:32:21.671Z,21.52
2022-08-02T08:33:21.589Z,21.50
2022-08-02T08:34:21.830Z,21.52
2022-08-02T08:35:22.070Z,21.53
2022-08-02T08:36:22.326Z,21.56
2022-08-02T08:37:22.583Z,21.59
2022-08-02T08:38:22.841Z,21.64
2022-08-02T08:39:23.131Z,21.65
2022-08-02T08:40:23.381Z,21.68
2022-08-02T08:41:23.648Z,21.67
2022-08-02T08:42:23.912Z,21.69
2022-08-02T08:43:24.271Z,21.71
2022-08-02T08:44:24.474Z,21.72
2022-08-02T08:45:24.728Z,21.75
2022-08-02T08:46:24.963Z,21.75
2022-08-02T08:47:25.207Z,21.74
2022-08-02T08:48:34.626Z,21.72
2022-08-02T08:49:25.880Z,21.69
2022-08-02T08:50:26.172Z,21.67
2022-08-02T08:51:26.261Z,21.65
2022-08-02T08:52:26.504Z,21.65
2022-08-02T08:53:36.327Z,21.65
2022-08-02T08:54:27.998Z,21.68
2022-08-02T08:55:27.289Z,21.69
2022-08-02T08:56:27.535Z,21.71
2022-08-02T08:57:27.818Z,21.74
2022-08-02T08:58:28.076Z,21.75
2022-08-02T08:59:28.338Z,21.77
2022-08-02T09:00:28.588Z,21.80
2022-08-02T09:01:28.914Z,21.82
2022-08-02T09:02:30.294Z,21.84
2022-08-02T09:03:29.367Z,21.86
2022-08-02T09:04:29.680Z,21.86
2022-08-02T09:05:29.940Z,21.88
2022-08-02T09:06:30.200Z,21.91
2022-08-02T09:07:30.470Z,21.91
2022-08-02T09:08:30.743Z,21.94
2022-08-02T09:09:31.012Z,21.96
2022-08-02T09:10:31.272Z,21.99
2022-08-02T09:11:31.521Z,22.02
2022-08-02T09:12:31.781Z,22.05
2022-08-02T09:13:45.240Z,22.07
2022-08-02T09:14:33.382Z,22.09
2022-08-02T09:15:32.686Z,22.10
2022-08-02T09:16:33.020Z,22.07
2022-08-02T09:17:33.174Z,22.09
2022-08-02T09:18:33.475Z,22.12
2022-08-02T09:19:33.719Z,22.14
2022-08-02T09:20:33.997Z,22.17
2022-08-02T09:21:34.249Z,22.17
2022-08-02T09:22:34.487Z,22.18
2022-08-02T09:23:34.769Z,22.15
2022-08-02T09:24:35.042Z,22.14
2022-08-02T09:25:35.289Z,22.14
2022-08-02T09:26:35.548Z,22.14
2022-08-02T09:27:35.829Z,22.10
2022-08-02T09:28:36.110Z,22.09
2022-08-02T09:29:48.487Z,22.09
2022-08-02T09:30:37.693Z,22.10
2022-08-02T09:31:37.025Z,22.10
2022-08-02T09:32:37.302Z,22.12
2022-08-02T09:33:38.016Z,22.10
2022-08-02T09:34:37.823Z,22.10
2022-08-02T09:36:05.376Z,22.12
2022-08-02T09:36:39.412Z,22.14
2022-08-02T09:37:38.688Z,22.14
2022-08-02T09:38:38.964Z,22.14
2022-08-02T09:39:39.217Z,22.17
2022-08-02T09:40:40.546Z,22.18
2022-08-02T09:41:39.875Z,22.17
2022-08-02T09:42:40.126Z,22.17
2022-08-02T09:43:51.959Z,22.20
2022-08-02T09:44:41.617Z,22.24
2022-08-02T09:45:40.981Z,22.27
2022-08-02T09:46:41.251Z,22.31
2022-08-02T09:47:41.509Z,22.35
2022-08-02T09:48:41.825Z,22.37
2022-08-02T09:49:42.112Z,22.37
2022-08-02T09:50:43.420Z,22.39
2022-08-02T09:51:42.713Z,22.39
2022-08-02T09:52:44.070Z,22.40
2022-08-02T09:53:43.276Z,22.42
2022-08-02T09:54:43.542Z,22.42
2022-08-02T09:55:43.804Z,22.45
2022-08-02T09:56:44.083Z,22.45
2022-08-02T09:57:44.342Z,22.45
2022-08-02T09:58:45.713Z,22.46
2022-08-02T09:59:45.046Z,22.49
2022-08-02T10:00:52.940Z,22.52
2022-08-02T10:01:51.684Z,22.55
2022-08-02T10:02:46.937Z,22.55
2022-08-02T10:03:46.295Z,22.57
2022-08-02T10:04:53.254Z,22.58
2022-08-02T10:05:55.430Z,22.58
2022-08-02T10:06:48.057Z,22.58
2022-08-02T10:07:47.329Z,22.64
2022-08-02T10:08:47.617Z,22.64
2022-08-02T10:09:47.891Z,22.62
2022-08-02T10:10:48.162Z,22.67
2022-08-02T10:11:48.411Z,22.68
2022-08-02T10:12:49.462Z,22.75
2022-08-02T10:13:48.921Z,22.77
2022-08-02T10:14:49.172Z,22.77
2022-08-02T10:15:50.372Z,22.80
2022-08-02T10:16:49.694Z,22.82
2022-08-02T10:17:49.941Z,22.85
2022-08-02T10:18:50.214Z,22.86
2022-08-02T10:20:01.977Z,22.91
2022-08-02T10:20:51.824Z,22.91
2022-08-02T10:21:51.173Z,22.94
2022-08-02T10:22:51.427Z,22.95
2022-08-02T10:23:51.686Z,22.97
2022-08-02T10:24:51.946Z,23.02
2022-08-02T10:25:52.964Z,23.02
2022-08-02T10:26:52.467Z,23.05
2022-08-02T10:28:05.218Z,23.09
2022-08-02T10:28:53.957Z,23.07
2022-08-02T10:29:55.109Z,23.07
2022-08-02T10:30:53.541Z,23.07
2022-08-02T10:31:53.790Z,23.09
2022-08-02T10:32:54.058Z,23.12
2022-08-02T10:33:54.324Z,23.15
2022-08-02T10:34:54.593Z,23.17
2022-08-02T10:36:07.134Z,23.19
2022-08-02T10:36:56.091Z,23.22
2022-08-02T10:37:55.419Z,23.22
2022-08-02T10:38:55.682Z,23.23
2022-08-02T10:39:55.958Z,23.20
2022-08-02T10:40:56.224Z,23.20
2022-08-02T10:41:56.474Z,23.20
2022-08-02T10:42:56.724Z,23.22
2022-08-02T10:43:57.038Z,23.22
2022-08-02T10:44:57.295Z,23.20
2022-08-02T10:45:57.548Z,23.25
2022-08-02T10:46:57.816Z,23.25
2022-08-02T10:47:58.078Z,23.28
2022-08-02T10:48:58.400Z,23.27
2022-08-02T10:49:58.656Z,23.28
2022-08-02T10:50:58.962Z,23.28
2022-08-02T10:51:59.217Z,23.27
2022-08-02T10:52:59.453Z,23.28
2022-08-02T10:53:59.769Z,23.25
2022-08-02T10:55:00.031Z,23.23
2022-08-02T10:56:00.301Z,23.23
2022-08-02T10:57:01.310Z,23.20
2022-08-02T10:58:00.822Z,23.22
2022-08-02T10:59:01.122Z,23.25
2022-08-02T11:00:01.370Z,23.27
2022-08-02T11:01:01.767Z,23.31
2022-08-02T11:02:01.900Z,23.33
2022-08-02T11:03:02.177Z,23.33
2022-08-02T11:04:05.008Z,23.36
2022-08-02T11:05:02.723Z,23.36
2022-08-02T11:06:02.989Z,23.36
2022-08-02T11:07:03.248Z,23.38
2022-08-02T11:08:03.508Z,23.39
2022-08-02T11:09:04.281Z,23.42
2022-08-02T11:10:04.029Z,23.40
2022-08-02T11:11:04.293Z,23.43
2022-08-02T11:12:04.549Z,23.46
2022-08-02T11:13:04.835Z,23.50
2022-08-02T11:14:05.116Z,23.53
2022-08-02T11:15:07.786Z,23.55
2022-08-02T11:16:11.217Z,23.60
2022-08-02T11:17:06.874Z,23.63
2022-08-02T11:18:06.179Z,23.63
2022-08-02T11:19:06.820Z,23.65
2022-08-02T11:20:06.660Z,23.68
2022-08-02T11:21:06.950Z,23.68
2022-08-02T11:22:07.232Z,23.69
2022-08-02T11:23:07.482Z,23.70
2022-08-02T11:24:07.847Z,23.72
2022-08-02T11:25:08.120Z,23.72
2022-08-02T11:26:10.974Z,23.75
2022-08-02T11:27:08.615Z,23.75
2022-08-02T11:28:08.893Z,23.73
2022-08-02T11:29:09.145Z,23.72
2022-08-02T11:30:10.495Z,23.72
2022-08-02T11:31:09.846Z,23.72
2022-08-02T11:32:10.479Z,23.69
2022-08-02T11:33:10.440Z,23.72
2022-08-02T11:34:10.738Z,23.72
2022-08-02T11:35:11.942Z,23.70
2022-08-02T11:36:11.253Z,23.69
2022-08-02T11:37:11.510Z,23.66
2022-08-02T11:38:11.806Z,23.70
2022-08-02T11:39:12.076Z,23.73
2022-08-02T11:40:19.322Z,23.75
2022-08-02T11:41:13.672Z,23.76
2022-08-02T11:42:14.252Z,23.79
2022-08-02T11:43:13.205Z,23.78
2022-08-02T11:44:13.496Z,23.80
2022-08-02T11:45:21.084Z,23.80
2022-08-02T11:46:15.068Z,23.84
2022-08-02T11:47:14.267Z,23.87
2022-08-02T11:48:14.530Z,23.88
2022-08-02T11:49:14.871Z,23.90
2022-08-02T11:50:15.066Z,23.90
2022-08-02T11:51:15.342Z,23.90
2022-08-02T11:52:15.843Z,23.90
2022-08-02T11:53:15.840Z,23.91
2022-08-02T11:54:16.272Z,23.90
2022-08-02T11:55:16.382Z,23.91
2022-08-02T11:56:21.836Z,23.91
2022-08-02T11:57:20.339Z,23.93
2022-08-02T11:58:17.270Z,23.90
2022-08-02T11:59:17.598Z,23.88
2022-08-02T12:00:17.883Z,23.90
2022-08-02T12:01:18.127Z,23.90
2022-08-02T12:02:18.732Z,23.93
2022-08-02T12:03:19.869Z,23.97
2022-08-02T12:04:19.179Z,23.98
2022-08-02T12:05:19.213Z,24.00
2022-08-02T12:06:19.572Z,24.00
2022-08-02T12:07:19.829Z,24.03
2022-08-02T12:08:22.095Z,24.05
2022-08-02T12:09:20.424Z,24.05
2022-08-02T12:10:20.695Z,24.09
2022-08-02T12:11:20.944Z,24.10
2022-08-02T12:12:21.197Z,24.09
2022-08-02T12:13:21.479Z,24.10
2022-08-02T12:14:21.788Z,24.12
2022-08-02T12:15:22.044Z,24.18
2022-08-02T12:16:22.291Z,24.21
2022-08-02T12:17:22.541Z,24.24
2022-08-02T12:18:22.804Z,24.25
2022-08-02T12:19:23.080Z,24.25
2022-08-02T12:20:23.340Z,24.27
2022-08-02T12:21:23.630Z,24.28
2022-08-02T12:22:24.450Z,24.30
2022-08-02T12:23:24.183Z,24.28
2022-08-02T12:24:24.463Z,24.27
2022-08-02T12:25:34.190Z,24.27
2022-08-02T12:26:26.057Z,24.25
2022-08-02T12:27:25.364Z,24.25
2022-08-02T12:28:25.623Z,24.25
2022-08-02T12:29:55.732Z,24.25
2022-08-02T12:30:27.717Z,24.27
2022-08-02T12:31:26.465Z,24.30
2022-08-02T12:32:26.729Z,24.30
2022-08-02T12:33:26.977Z,24.31
2022-08-02T12:34:29.953Z,24.32
2022-08-02T12:35:28.457Z,24.35
2022-08-02T12:36:27.868Z,24.40
2022-08-02T12:37:28.109Z,24.45
2022-08-02T12:38:28.372Z,24.47
2022-08-02T12:39:31.458Z,24.47
2022-08-02T12:40:28.891Z,24.50
2022-08-02T12:41:30.936Z,24.52
2022-08-02T12:42:29.477Z,24.55
2022-08-02T12:43:29.703Z,24.57
2022-08-02T12:44:29.983Z,24.60
2022-08-02T12:45:41.933Z,24.61
2022-08-02T12:46:31.592Z,24.62
2022-08-02T12:47:35.710Z,24.65
2022-08-02T12:48:37.048Z,24.61
2022-08-02T12:49:32.557Z,24.62
2022-08-02T12:50:31.756Z,24.65
2022-08-02T12:51:50.754Z,24.67
2022-08-02T12:52:33.354Z,24.67
2022-08-02T12:53:32.657Z,24.65
2022-08-02T12:54:32.950Z,24.68
2022-08-02T12:56:00.807Z,24.69
2022-08-02T12:56:34.529Z,24.71
2022-08-02T12:57:35.601Z,24.76